SBJU/JDO METAR and TAF weather

Enter ICAO airport designator
Station Type Date Time Source
SBJU METAR 2021/05/11 00:00 UTC NOAA

SBJU 110000Z 17007KT 9999 FEW020 26/20 Q1018


Station Type Date Time Source
SBJU Decoded METAR 2021/05/11 00:00 UTC NOAA

Station name not available
May 10, 2021 - 08:00 PM EDT / 2021.05.11 0000 UTC
Wind: from the S (170 degrees) at 8 MPH (7 KT):0
Visibility: greater than 7 mile(s):0
Sky conditions: mostly clear
Temperature: 78 F (26 C)
Dew Point: 68 F (20 C)
Relative Humidity: 69%
Pressure (altimeter): 30.06 in. Hg (1018 hPa)
ob: SBJU 110000Z 17007KT 9999 FEW020 26/20 Q1018
cycle: 0

Station Type Date Time Source
SBJU TAF 2011/11/01 00:05 UTC NOAA

TAF SBJU 012200Z 0200/0212 00000KT 9999 SCT020 TX28/0200Z TN24/0207Z
BECMG 0210/0212 06005KT
RMK PCE

Example: see airport list